createdAt,value
2018-10-05T00:00:45.471Z,102059.28
2018-10-05T00:03:13.819Z,102051.94
2018-10-05T00:05:42.138Z,102048.13
2018-10-05T00:08:10.479Z,102050.20
2018-10-05T00:10:38.857Z,102052.82
2018-10-05T00:13:07.241Z,102049.12
2018-10-05T00:15:35.583Z,102049.92
2018-10-05T00:18:04.015Z,102047.58
2018-10-05T00:20:32.430Z,102047.70
2018-10-05T00:23:00.753Z,102054.75
2018-10-05T00:25:29.099Z,102046.77
2018-10-05T00:27:57.474Z,102043.06
2018-10-05T00:30:25.836Z,102040.78
2018-10-05T00:32:54.196Z,102040.70
2018-10-05T00:35:22.507Z,102039.82
2018-10-05T00:37:50.867Z,102042.04
2018-10-05T00:40:19.223Z,102033.91
2018-10-05T00:42:47.579Z,102034.80
2018-10-05T00:45:15.893Z,102031.08
2018-10-05T00:47:44.258Z,102015.80
2018-10-05T00:50:12.967Z,102024.88
2018-10-05T00:52:41.307Z,102015.80
2018-10-05T00:55:09.645Z,102023.34
2018-10-05T00:57:37.999Z,102025.95
2018-10-05T01:00:06.432Z,102024.60
2018-10-05T01:02:34.781Z,102020.95
2018-10-05T01:05:03.111Z,102016.13
2018-10-05T01:07:31.480Z,102014.36
2018-10-05T01:09:59.822Z,102012.96
2018-10-05T01:12:28.167Z,102007.96
2018-10-05T01:14:56.501Z,102013.02
2018-10-05T01:17:24.834Z,102018.28
2018-10-05T01:19:53.165Z,102018.28
2018-10-05T01:22:21.490Z,102012.03
2018-10-05T01:24:49.893Z,102020.19
2018-10-05T01:27:18.249Z,102019.16
2018-10-05T01:29:46.580Z,102017.55
2018-10-05T01:32:15.034Z,102015.38
2018-10-05T01:34:43.356Z,102013.90
2018-10-05T01:37:11.694Z,102007.72
2018-10-05T01:39:40.033Z,102000.84
2018-10-05T01:42:08.364Z,102000.14
2018-10-05T01:44:36.720Z,101995.61
2018-10-05T01:47:05.048Z,102000.12
2018-10-05T01:49:33.375Z,102007.75
2018-10-05T01:52:01.721Z,101997.19
2018-10-05T01:54:30.063Z,101994.55
2018-10-05T01:56:58.432Z,101992.19
2018-10-05T01:59:26.785Z,101992.27
2018-10-05T02:01:55.115Z,101986.89
2018-10-05T02:04:23.436Z,101991.02
2018-10-05T02:06:51.792Z,101987.83
2018-10-05T02:09:20.130Z,101980.98
2018-10-05T02:11:48.472Z,101982.80
2018-10-05T02:14:16.830Z,101980.78
2018-10-05T02:16:45.173Z,101976.74
2018-10-05T02:19:13.593Z,101976.63
2018-10-05T02:21:41.942Z,101970.56
2018-10-05T02:24:10.282Z,101975.81
2018-10-05T02:26:38.646Z,101967.77
2018-10-05T02:29:07.693Z,101962.97
2018-10-05T02:31:36.127Z,101966.06
2018-10-05T02:34:04.502Z,101971.22
2018-10-05T02:36:32.849Z,101973.85
2018-10-05T02:39:01.207Z,101974.81
2018-10-05T02:41:29.576Z,101970.75
2018-10-05T02:43:57.912Z,101964.98
2018-10-05T02:46:26.259Z,101965.98
2018-10-05T02:48:54.609Z,101965.54
2018-10-05T02:51:22.975Z,101962.30
2018-10-05T02:53:51.333Z,101968.23
2018-10-05T02:56:19.682Z,101958.55
2018-10-05T02:58:48.009Z,101956.59
2018-10-05T03:01:27.673Z,101957.45
2018-10-05T03:03:56.007Z,101958.87
2018-10-05T03:06:24.398Z,101957.47
2018-10-05T03:08:52.745Z,101957.45
2018-10-05T03:11:21.072Z,101953.88
2018-10-05T03:13:49.423Z,101951.07
2018-10-05T03:16:17.965Z,101958.64
2018-10-05T03:18:46.379Z,101949.78
2018-10-05T03:21:14.707Z,101948.05
2018-10-05T03:23:43.055Z,101948.17
2018-10-05T03:26:11.622Z,101946.24
2018-10-05T03:28:39.954Z,101943.55
2018-10-05T03:31:08.384Z,101933.11
2018-10-05T03:33:36.741Z,101930.95
2018-10-05T03:36:05.064Z,101924.61
2018-10-05T03:38:33.422Z,101923.67
2018-10-05T03:41:01.783Z,101924.17
2018-10-05T03:43:30.173Z,101927.39
2018-10-05T03:45:58.606Z,101930.02
2018-10-05T03:48:27.426Z,101929.05
2018-10-05T03:50:55.769Z,101928.20
2018-10-05T03:53:24.113Z,101935.25
2018-10-05T03:55:52.460Z,101934.44
2018-10-05T03:58:20.771Z,101932.77
2018-10-05T04:00:49.118Z,101927.39
2018-10-05T04:03:17.457Z,101929.55
2018-10-05T04:05:45.837Z,101923.20
2018-10-05T04:08:14.220Z,101929.52
2018-10-05T04:10:42.561Z,101920.89
2018-10-05T04:13:10.880Z,101919.96
2018-10-05T04:15:39.228Z,101914.26
2018-10-05T04:18:07.649Z,101906.59
2018-10-05T04:20:36.019Z,101916.42
2018-10-05T04:23:04.455Z,101916.33
2018-10-05T04:25:32.804Z,101924.41
2018-10-05T04:28:01.153Z,101928.91
2018-10-05T04:30:29.494Z,101924.95
2018-10-05T04:32:57.840Z,101925.34
2018-10-05T04:35:27.204Z,101927.30
2018-10-05T04:37:55.607Z,101930.31
2018-10-05T04:40:23.944Z,101931.98
2018-10-05T04:42:52.322Z,101932.39
2018-10-05T04:45:20.680Z,101934.14
2018-10-05T04:47:49.032Z,101931.51
2018-10-05T04:50:17.399Z,101932.39
2018-10-05T04:52:45.811Z,101929.29
2018-10-05T04:55:14.156Z,101933.33
2018-10-05T04:57:42.527Z,101940.87
2018-10-05T05:00:10.881Z,101938.64
2018-10-05T05:02:39.207Z,101940.92
2018-10-05T05:05:07.555Z,101944.96
2018-10-05T05:07:35.895Z,101942.22
2018-10-05T05:10:04.558Z,101945.37
2018-10-05T05:12:33.153Z,101950.67
2018-10-05T05:15:01.748Z,101947.51
2018-10-05T05:17:30.084Z,101951.02
2018-10-05T05:19:58.433Z,101951.55
2018-10-05T05:22:26.771Z,101952.91
2018-10-05T05:24:55.267Z,101953.03
2018-10-05T05:27:23.641Z,101951.22
2018-10-05T05:29:51.978Z,101952.16
2018-10-05T05:32:20.346Z,101947.19
2018-10-05T05:34:48.797Z,101958.03
2018-10-05T05:37:17.132Z,101958.44
2018-10-05T05:39:45.447Z,101954.79
2018-10-05T05:42:13.846Z,101961.13
2018-10-05T05:44:42.169Z,101963.24
2018-10-05T05:47:10.504Z,101961.84
2018-10-05T05:49:38.906Z,101959.47
2018-10-05T05:52:07.835Z,101955.20
2018-10-05T05:54:36.214Z,101960.43
2018-10-05T05:57:04.621Z,101962.77
2018-10-05T05:59:32.989Z,101964.85
2018-10-05T06:02:01.381Z,101965.73
2018-10-05T06:04:29.713Z,101960.64
2018-10-05T06:06:58.100Z,101968.83
2018-10-05T06:09:26.440Z,101965.08
2018-10-05T06:11:54.784Z,101967.30
2018-10-05T06:14:23.125Z,101970.73
2018-10-05T06:16:51.441Z,101972.45
2018-10-05T06:19:19.767Z,101963.84
2018-10-05T06:21:48.155Z,101966.98
2018-10-05T06:24:16.460Z,101964.64
2018-10-05T06:26:44.794Z,101966.92
2018-10-05T06:29:13.672Z,101970.95
2018-10-05T06:31:42.026Z,101971.05
2018-10-05T06:34:10.373Z,101967.33
2018-10-05T06:36:38.714Z,101975.00
2018-10-05T06:39:08.230Z,101969.08
2018-10-05T06:41:36.600Z,101966.15
2018-10-05T06:44:04.967Z,101966.68
2018-10-05T06:46:33.304Z,101966.27
2018-10-05T06:49:01.659Z,101970.16
2018-10-05T06:51:29.989Z,101968.50
2018-10-05T06:53:58.321Z,101967.50
2018-10-05T06:56:26.637Z,101968.13
2018-10-05T06:58:54.988Z,101972.08
2018-10-05T07:01:23.424Z,101977.27
2018-10-05T07:03:51.697Z,101984.77
2018-10-05T07:06:20.065Z,101981.91
2018-10-05T07:08:48.411Z,101983.08
2018-10-05T07:13:58.828Z,101989.17
2018-10-05T07:16:27.180Z,101997.24
2018-10-05T07:18:55.493Z,101987.11
2018-10-05T07:21:23.971Z,101985.91
2018-10-05T07:23:52.216Z,101984.18
2018-10-05T07:26:20.556Z,101980.11
2018-10-05T07:28:48.939Z,101978.95
2018-10-05T07:31:17.278Z,101976.65
2018-10-05T07:33:45.619Z,101978.98
2018-10-05T07:36:13.944Z,101981.31
2018-10-05T07:38:42.289Z,101974.81
2018-10-05T07:41:11.714Z,101975.93
2018-10-05T07:43:40.707Z,101970.16
2018-10-05T07:46:09.864Z,101963.34
2018-10-05T07:48:38.436Z,101961.31
2018-10-05T07:51:06.988Z,101958.06
2018-10-05T07:53:35.486Z,101962.77
2018-10-05T07:56:03.848Z,101961.92
2018-10-05T07:58:33.413Z,101960.53
2018-10-05T08:01:01.866Z,101962.91
2018-10-05T08:03:30.202Z,101963.95
2018-10-05T08:05:58.657Z,101964.80
2018-10-05T08:08:27.101Z,101964.89
2018-10-05T08:10:55.621Z,101955.23
2018-10-05T08:13:24.954Z,101949.58
2018-10-05T08:15:53.334Z,101949.20
2018-10-05T08:18:21.712Z,101950.42
2018-10-05T08:20:50.065Z,101948.48
2018-10-05T08:23:18.405Z,101946.20
2018-10-05T08:25:46.738Z,101938.09
2018-10-05T08:28:15.161Z,101947.72
2018-10-05T08:30:43.485Z,101940.52
2018-10-05T08:33:11.954Z,101936.36
2018-10-05T08:35:40.424Z,101935.56
2018-10-05T08:38:08.785Z,101936.73
2018-10-05T08:40:37.093Z,101936.13
2018-10-05T08:43:05.432Z,101924.75
2018-10-05T08:45:33.768Z,101929.52
2018-10-05T08:48:02.156Z,101920.41
2018-10-05T08:50:30.471Z,101922.30
2018-10-05T08:52:58.804Z,101920.05
2018-10-05T08:55:27.129Z,101912.28
2018-10-05T08:57:55.508Z,101903.80
2018-10-05T09:00:23.867Z,101901.27
2018-10-05T09:02:52.191Z,101903.66
2018-10-05T09:05:20.524Z,101908.02
2018-10-05T09:07:48.889Z,101903.41
2018-10-05T09:10:17.225Z,101902.54
2018-10-05T09:12:45.579Z,101898.73
2018-10-05T09:15:13.912Z,101900.40
2018-10-05T09:17:42.295Z,101895.05
2018-10-05T09:20:10.641Z,101895.02
2018-10-05T09:22:38.964Z,101894.63
2018-10-05T09:25:07.292Z,101893.23
2018-10-05T09:27:35.616Z,101887.20
2018-10-05T09:30:04.029Z,101881.06
2018-10-05T09:32:32.374Z,101881.22
2018-10-05T09:35:00.724Z,101877.89
2018-10-05T09:37:29.100Z,101870.78
2018-10-05T09:39:57.499Z,101880.33
2018-10-05T09:42:25.847Z,101864.02
2018-10-05T09:44:54.209Z,101862.80
2018-10-05T09:47:22.536Z,101859.66
2018-10-05T09:49:50.882Z,101860.58
2018-10-05T09:52:19.237Z,101855.14
2018-10-05T09:54:47.546Z,101852.48
2018-10-05T09:57:15.894Z,101854.33
2018-10-05T09:59:44.266Z,101856.13
2018-10-05T10:02:18.821Z,101845.53
2018-10-05T10:04:47.212Z,101849.42
2018-10-05T10:07:15.581Z,101843.34
2018-10-05T10:09:43.901Z,101840.30
2018-10-05T10:12:12.258Z,101838.31
2018-10-05T10:14:40.589Z,101834.67
2018-10-05T10:17:08.899Z,101825.92
2018-10-05T10:19:37.245Z,101812.61
2018-10-05T10:22:05.580Z,101806.09
2018-10-05T10:24:33.938Z,101808.03
2018-10-05T10:27:02.334Z,101788.24
2018-10-05T10:29:30.653Z,101798.39
2018-10-05T10:31:58.960Z,101792.54
2018-10-05T10:34:27.373Z,101796.63
2018-10-05T10:36:55.660Z,101795.27
2018-10-05T10:39:23.970Z,101786.09
2018-10-05T10:41:52.278Z,101782.78
2018-10-05T10:44:20.632Z,101778.41
2018-10-05T10:46:49.002Z,101786.15
2018-10-05T10:49:17.382Z,101782.37
2018-10-05T10:51:45.707Z,101778.05
2018-10-05T10:54:14.164Z,101778.70
2018-10-05T10:56:42.407Z,101769.86
2018-10-05T10:59:10.759Z,101766.83
2018-10-05T11:01:39.124Z,101763.96
2018-10-05T11:04:07.546Z,101766.81
2018-10-05T11:06:35.837Z,101762.14
2018-10-05T11:09:05.059Z,101763.52
2018-10-05T11:11:33.402Z,101760.41
2018-10-05T11:14:01.792Z,101757.71
2018-10-05T11:16:30.140Z,101757.12
2018-10-05T11:18:58.482Z,101759.23
2018-10-05T11:21:26.833Z,101749.48
2018-10-05T11:23:55.479Z,101746.68
2018-10-05T11:26:23.536Z,101740.36
2018-10-05T11:28:51.848Z,101736.47
2018-10-05T11:31:20.225Z,101732.84
2018-10-05T11:33:48.561Z,101729.23
2018-10-05T11:36:17.512Z,101733.54
2018-10-05T11:38:45.877Z,101726.48
2018-10-05T11:41:14.241Z,101713.67
2018-10-05T11:43:42.581Z,101713.18
2018-10-05T11:46:11.264Z,101703.23
2018-10-05T11:48:39.598Z,101702.11
2018-10-05T11:51:07.951Z,101695.70
2018-10-05T11:53:36.870Z,101694.18
2018-10-05T11:56:05.203Z,101693.53
2018-10-05T11:58:33.592Z,101692.81
2018-10-05T12:01:02.066Z,101688.47
2018-10-05T12:03:30.451Z,101680.92
2018-10-05T12:05:58.817Z,101676.58
2018-10-05T12:08:27.159Z,101669.74
2018-10-05T12:10:55.519Z,101672.48
2018-10-05T12:13:24.405Z,101671.16
2018-10-05T12:15:52.755Z,101664.13
2018-10-05T12:18:21.139Z,101664.38
2018-10-05T12:20:49.497Z,101661.76
2018-10-05T12:23:17.857Z,101653.30
2018-10-05T12:25:46.204Z,101649.20
2018-10-05T12:28:14.538Z,101650.17
2018-10-05T12:30:42.878Z,101651.23
2018-10-05T12:33:11.222Z,101650.00
2018-10-05T12:35:39.572Z,101649.88
2018-10-05T12:38:07.901Z,101648.22
2018-10-05T12:40:36.232Z,101644.14
2018-10-05T12:43:04.546Z,101640.17
2018-10-05T12:45:32.886Z,101639.67
2018-10-05T12:48:01.533Z,101638.61
2018-10-05T12:50:30.023Z,101637.03
2018-10-05T12:52:58.504Z,101625.52
2018-10-05T12:55:26.860Z,101625.69
2018-10-05T12:57:55.208Z,101625.48
2018-10-05T13:00:23.560Z,101616.33
2018-10-05T13:02:51.940Z,101620.99
2018-10-05T13:05:20.299Z,101617.52
2018-10-05T13:07:48.611Z,101610.59
2018-10-05T13:10:17.133Z,101598.08
2018-10-05T13:12:45.476Z,101608.56
2018-10-05T13:15:13.819Z,101609.55
2018-10-05T13:17:43.034Z,101603.05
2018-10-05T13:20:11.523Z,101599.84
2018-10-05T13:22:39.893Z,101594.22
2018-10-05T13:25:08.226Z,101601.95
2018-10-05T13:27:36.836Z,101588.72
2018-10-05T13:30:06.025Z,101589.47
2018-10-05T13:32:34.340Z,101595.58
2018-10-05T13:35:02.793Z,101592.63
2018-10-05T13:37:31.273Z,101594.16
2018-10-05T13:39:59.529Z,101592.13
2018-10-05T13:42:27.941Z,101589.61
2018-10-05T13:44:56.266Z,101588.56
2018-10-05T13:47:24.653Z,101579.52
2018-10-05T13:49:52.988Z,101583.49
2018-10-05T13:52:21.445Z,101581.27
2018-10-05T13:54:49.797Z,101568.03
2018-10-05T13:57:18.305Z,101564.55
2018-10-05T13:59:46.661Z,101558.63
2018-10-05T14:02:14.999Z,101558.73
2018-10-05T14:04:43.340Z,101555.84
2018-10-05T14:07:11.745Z,101552.33
2018-10-05T14:09:40.081Z,101550.10
2018-10-05T14:12:08.412Z,101549.61
2018-10-05T14:14:36.754Z,101547.00
2018-10-05T14:17:05.102Z,101541.64
2018-10-05T14:19:33.448Z,101536.02
2018-10-05T14:22:01.791Z,101538.75
2018-10-05T14:24:30.115Z,101531.56
2018-10-05T14:26:58.491Z,101529.53
2018-10-05T14:29:26.823Z,101527.91
2018-10-05T14:31:55.173Z,101524.41
2018-10-05T14:34:23.518Z,101525.47
2018-10-05T14:36:51.862Z,101521.47
2018-10-05T14:39:20.211Z,101515.25
2018-10-05T14:41:48.676Z,101519.82
2018-10-05T14:44:16.906Z,101521.79
2018-10-05T14:46:45.273Z,101517.79
2018-10-05T14:49:13.585Z,101516.84
2018-10-05T14:51:42.001Z,101507.31
2018-10-05T14:54:10.510Z,101505.55
2018-10-05T14:56:38.865Z,101501.70
2018-10-05T14:59:07.240Z,101500.05
2018-10-05T15:01:35.787Z,101491.77
2018-10-05T15:04:04.133Z,101488.87
2018-10-05T15:06:32.495Z,101485.02
2018-10-05T15:09:00.921Z,101484.84
2018-10-05T15:11:29.255Z,101484.05
2018-10-05T15:13:57.619Z,101481.53
2018-10-05T15:16:25.961Z,101476.32
2018-10-05T15:18:54.406Z,101475.63
2018-10-05T15:21:22.773Z,101476.02
2018-10-05T15:23:51.076Z,101473.38
2018-10-05T15:26:19.440Z,101474.36
2018-10-05T15:28:47.791Z,101469.11
2018-10-05T15:31:16.151Z,101462.55
2018-10-05T15:33:44.504Z,101459.23
2018-10-05T15:36:12.926Z,101458.48
2018-10-05T15:38:41.318Z,101456.07
2018-10-05T15:41:09.638Z,101448.41
2018-10-05T15:43:37.966Z,101450.53
2018-10-05T15:46:08.594Z,101449.48
2018-10-05T15:48:37.233Z,101442.99
2018-10-05T15:51:06.026Z,101448.43
2018-10-05T15:53:34.818Z,101443.20
2018-10-05T15:56:03.613Z,101452.89
2018-10-05T15:58:32.126Z,101449.04
2018-10-05T16:01:00.436Z,101444.18
2018-10-05T16:03:28.773Z,101443.01
2018-10-05T16:05:57.139Z,101442.25
2018-10-05T16:08:25.437Z,101443.42
2018-10-05T16:10:53.780Z,101438.19
2018-10-05T16:13:22.847Z,101441.77
2018-10-05T16:15:51.179Z,101440.52
2018-10-05T16:18:19.597Z,101439.73
2018-10-05T16:20:47.912Z,101439.32
2018-10-05T16:23:16.229Z,101436.42
2018-10-05T16:25:44.583Z,101434.87
2018-10-05T16:28:13.012Z,101434.98
2018-10-05T16:30:41.433Z,101429.36
2018-10-05T16:33:09.776Z,101432.18
2018-10-05T16:35:38.123Z,101433.72
2018-10-05T16:38:06.605Z,101425.00
2018-10-05T16:40:34.946Z,101433.14
2018-10-05T16:43:03.323Z,101427.89
2018-10-05T16:45:31.672Z,101428.08
2018-10-05T16:48:00.050Z,101430.41
2018-10-05T16:50:28.399Z,101433.33
2018-10-05T16:52:56.819Z,101426.44
2018-10-05T16:55:25.175Z,101416.71
2018-10-05T16:57:53.536Z,101412.94
2018-10-05T17:00:21.873Z,101418.82
2018-10-05T17:02:50.227Z,101415.83
2018-10-05T17:05:18.555Z,101422.07
2018-10-05T17:07:46.947Z,101415.37
2018-10-05T17:10:15.335Z,101410.22
2018-10-05T17:12:43.815Z,101409.02
2018-10-05T17:15:12.188Z,101410.55
2018-10-05T17:17:40.599Z,101406.00
2018-10-05T17:20:09.082Z,101399.98
2018-10-05T17:22:37.383Z,101398.11
2018-10-05T17:25:06.013Z,101391.50
2018-10-05T17:27:34.452Z,101394.77
2018-10-05T17:30:02.907Z,101396.22
2018-10-05T17:32:31.252Z,101394.45
2018-10-05T17:34:59.661Z,101395.92
2018-10-05T17:37:27.962Z,101392.03
2018-10-05T17:39:56.318Z,101391.97
2018-10-05T17:42:24.660Z,101398.20
2018-10-05T17:44:53.008Z,101389.86
2018-10-05T17:47:21.398Z,101392.35
2018-10-05T17:49:50.447Z,101389.08
2018-10-05T17:52:18.827Z,101385.45
2018-10-05T17:54:47.246Z,101380.03
2018-10-05T17:57:16.222Z,101381.16
2018-10-05T17:59:44.587Z,101381.21
2018-10-05T18:02:13.056Z,101377.47
2018-10-05T18:04:41.311Z,101373.09
2018-10-05T18:07:09.688Z,101371.12
2018-10-05T18:09:38.021Z,101372.16
2018-10-05T18:12:06.550Z,101369.23
2018-10-05T18:14:34.948Z,101368.30
2018-10-05T18:17:03.313Z,101368.41
2018-10-05T18:19:31.689Z,101367.59
2018-10-05T18:22:00.037Z,101364.61
2018-10-05T18:24:28.405Z,101362.70
2018-10-05T18:26:56.712Z,101358.91
2018-10-05T18:29:25.064Z,101358.52
2018-10-05T18:31:53.413Z,101357.81
2018-10-05T18:34:21.763Z,101351.59
2018-10-05T18:36:50.095Z,101353.52
2018-10-05T18:39:18.445Z,101347.25
2018-10-05T18:41:46.825Z,101349.56
2018-10-05T18:44:15.218Z,101354.58
2018-10-05T18:46:43.568Z,101354.58
2018-10-05T18:49:11.901Z,101352.45
2018-10-05T18:51:40.444Z,101351.33
2018-10-05T18:54:08.783Z,101350.70
2018-10-05T18:56:48.433Z,101341.50
2018-10-05T18:59:16.801Z,101340.53
2018-10-05T19:01:45.153Z,101333.80
2018-10-05T19:04:13.507Z,101337.37
2018-10-05T19:06:41.882Z,101336.87
2018-10-05T19:09:10.254Z,101333.88
2018-10-05T19:11:38.870Z,101332.73
2018-10-05T19:14:07.431Z,101331.00
2018-10-05T19:16:35.809Z,101328.06
2018-10-05T19:19:04.320Z,101333.62
2018-10-05T19:21:32.686Z,101321.64
2018-10-05T19:24:01.049Z,101322.03
2018-10-05T19:26:29.523Z,101323.38
2018-10-05T19:28:57.789Z,101315.82
2018-10-05T19:31:26.158Z,101315.77
2018-10-05T19:33:54.486Z,101310.75
2018-10-05T19:36:22.854Z,101310.75
2018-10-05T19:38:51.231Z,101312.44
2018-10-05T19:41:19.605Z,101309.41
2018-10-05T19:43:47.928Z,101308.05
2018-10-05T19:46:16.424Z,101299.95
2018-10-05T19:48:44.859Z,101298.36
2018-10-05T19:51:13.232Z,101301.55
2018-10-05T19:53:41.647Z,101295.81
2018-10-05T19:56:10.253Z,101292.62
2018-10-05T19:58:38.591Z,101294.80
2018-10-05T20:01:07.067Z,101290.33
2018-10-05T20:03:35.408Z,101283.34
2018-10-05T20:06:03.770Z,101281.98
2018-10-05T20:08:32.171Z,101277.70
2018-10-05T20:11:00.592Z,101268.82
2018-10-05T20:13:28.952Z,101269.84
2018-10-05T20:15:57.322Z,101269.31
2018-10-05T20:18:25.995Z,101263.97
2018-10-05T20:20:54.426Z,101263.25
2018-10-05T20:23:22.773Z,101262.86
2018-10-05T20:25:51.140Z,101260.87
2018-10-05T20:28:19.478Z,101259.77
2018-10-05T20:30:47.901Z,101261.27
2018-10-05T20:33:16.249Z,101266.24
2018-10-05T20:35:44.591Z,101261.51
2018-10-05T20:38:12.989Z,101260.45
2018-10-05T20:40:41.367Z,101250.91
2018-10-05T20:43:09.933Z,101254.03
2018-10-05T20:45:38.301Z,101246.47
2018-10-05T20:48:06.693Z,101244.49
2018-10-05T20:50:35.000Z,101243.86
2018-10-05T20:53:03.320Z,101232.25
2018-10-05T20:55:31.808Z,101234.47
2018-10-05T20:58:00.175Z,101235.09
2018-10-05T21:00:28.529Z,101226.73
2018-10-05T21:02:56.931Z,101237.65
2018-10-05T21:05:25.428Z,101229.78
2018-10-05T21:07:53.790Z,101228.69
2018-10-05T21:10:22.228Z,101230.89
2018-10-05T21:12:50.601Z,101230.84
2018-10-05T21:15:19.368Z,101228.53
2018-10-05T21:17:47.793Z,101223.51
2018-10-05T21:20:16.224Z,101231.13
2018-10-05T21:22:44.648Z,101225.95
2018-10-05T21:25:13.012Z,101219.55
2018-10-05T21:27:41.444Z,101223.65
2018-10-05T21:30:09.852Z,101214.67
2018-10-05T21:32:38.206Z,101218.72
2018-10-05T21:35:06.572Z,101213.13
2018-10-05T21:37:34.940Z,101214.95
2018-10-05T21:40:03.338Z,101206.95
2018-10-05T21:42:31.700Z,101203.13
2018-10-05T21:45:00.153Z,101204.77
2018-10-05T21:47:28.462Z,101201.98
2018-10-05T21:49:56.874Z,101199.34
2018-10-05T21:52:25.262Z,101193.08
2018-10-05T21:54:53.687Z,101191.73
2018-10-05T21:57:22.042Z,101191.88
2018-10-05T21:59:50.419Z,101185.56
2018-10-05T22:02:18.803Z,101187.44
2018-10-05T22:04:47.208Z,101187.89
2018-10-05T22:07:15.596Z,101182.24
2018-10-05T22:09:43.932Z,101179.30
2018-10-05T22:12:12.312Z,101173.43
2018-10-05T22:14:40.682Z,101169.30
2018-10-05T22:17:09.073Z,101161.53
2018-10-05T22:19:37.675Z,101162.45
2018-10-05T22:22:05.941Z,101164.61
2018-10-05T22:24:34.309Z,101166.45
2018-10-05T22:27:02.688Z,101157.64
2018-10-05T22:29:31.069Z,101157.82
2018-10-05T22:31:59.606Z,101154.12
2018-10-05T22:34:27.980Z,101151.48
2018-10-05T22:36:56.337Z,101155.39
2018-10-05T22:39:24.731Z,101156.25
2018-10-05T22:41:53.234Z,101158.64
2018-10-05T22:44:21.579Z,101150.83
2018-10-05T22:46:49.960Z,101152.57
2018-10-05T22:49:18.292Z,101155.34
2018-10-05T22:51:47.672Z,101150.05
2018-10-05T22:54:15.999Z,101151.78
2018-10-05T22:56:44.433Z,101147.75
2018-10-05T22:59:12.812Z,101147.27
2018-10-05T23:01:41.241Z,101144.18
2018-10-05T23:04:09.689Z,101145.28
2018-10-05T23:06:38.085Z,101141.98
2018-10-05T23:09:07.965Z,101142.12
2018-10-05T23:11:36.583Z,101140.72
2018-10-05T23:14:04.992Z,101142.94
2018-10-05T23:16:33.534Z,101138.50
2018-10-05T23:19:02.030Z,101146.63
2018-10-05T23:21:30.458Z,101138.24
2018-10-05T23:23:58.850Z,101136.34
2018-10-05T23:26:27.197Z,101132.78
2018-10-05T23:28:55.610Z,101128.95
2018-10-05T23:31:23.956Z,101127.69
2018-10-05T23:33:52.302Z,101122.05
2018-10-05T23:36:20.656Z,101123.31
2018-10-05T23:38:48.990Z,101121.75
2018-10-05T23:41:17.345Z,101126.09
2018-10-05T23:43:46.020Z,101120.58
2018-10-05T23:46:14.434Z,101116.93
2018-10-05T23:48:42.779Z,101116.53
2018-10-05T23:51:11.228Z,101115.72
2018-10-05T23:53:39.574Z,101112.23
2018-10-05T23:56:07.916Z,101116.02
2018-10-05T23:58:36.301Z,101116.02
